createdAt,value
2022-10-02T00:00:52.432Z,95.00
2022-10-02T00:03:24.677Z,95.00
2022-10-02T00:05:57.924Z,95.00
2022-10-02T00:08:32.394Z,95.00
2022-10-02T00:11:07.561Z,95.00
2022-10-02T00:13:43.542Z,95.00
2022-10-02T00:16:15.887Z,95.00
2022-10-02T00:18:44.218Z,95.00
2022-10-02T00:21:26.104Z,95.00
2022-10-02T00:23:57.416Z,95.00
2022-10-02T00:26:27.917Z,95.00
2022-10-02T00:29:10.110Z,95.00
2022-10-02T00:31:48.003Z,95.00
2022-10-02T00:34:25.330Z,95.00
2022-10-02T00:37:03.385Z,95.00
2022-10-02T00:39:43.690Z,95.00
2022-10-02T00:42:47.008Z,95.00
2022-10-02T00:45:42.333Z,95.00
2022-10-02T00:48:26.283Z,95.00
2022-10-02T00:51:04.243Z,95.00
2022-10-02T00:53:42.116Z,95.00
2022-10-02T00:56:22.899Z,95.00
2022-10-02T00:59:01.623Z,95.00
2022-10-02T01:01:39.627Z,95.00
2022-10-02T01:04:11.006Z,95.00
2022-10-02T01:06:38.397Z,95.00
2022-10-02T01:09:05.431Z,95.00
2022-10-02T01:11:33.895Z,95.00
2022-10-02T01:14:01.071Z,95.00
2022-10-02T01:16:28.157Z,95.00
2022-10-02T01:18:58.842Z,95.00
2022-10-02T01:21:36.786Z,95.00
2022-10-02T01:24:10.686Z,95.00
2022-10-02T01:26:39.282Z,95.00
2022-10-02T01:29:06.436Z,95.00
2022-10-02T01:31:35.624Z,95.00
2022-10-02T01:34:04.822Z,95.00
2022-10-02T01:36:32.832Z,95.00
2022-10-02T01:39:01.404Z,95.00
2022-10-02T01:41:28.825Z,95.00
2022-10-02T01:44:01.203Z,95.00
2022-10-02T01:46:32.819Z,95.00
2022-10-02T01:49:27.696Z,95.00
2022-10-02T01:52:09.150Z,95.00
2022-10-02T01:54:51.564Z,95.00
2022-10-02T01:57:26.731Z,95.00
2022-10-02T02:00:05.608Z,95.00
2022-10-02T02:02:42.622Z,95.00
2022-10-02T02:05:16.271Z,95.00
2022-10-02T02:07:48.967Z,95.00
2022-10-02T02:10:24.106Z,95.00
2022-10-02T02:12:58.570Z,95.00
2022-10-02T02:15:33.432Z,95.00
2022-10-02T02:18:11.665Z,95.00
2022-10-02T02:20:46.873Z,95.00
2022-10-02T02:23:17.351Z,95.00
2022-10-02T02:25:49.391Z,95.00
2022-10-02T02:28:21.315Z,95.00
2022-10-02T02:30:52.890Z,95.00
2022-10-02T02:33:25.019Z,95.00
2022-10-02T02:35:56.625Z,95.00
2022-10-02T02:38:28.865Z,95.00
2022-10-02T02:40:59.939Z,95.00
2022-10-02T02:43:31.806Z,95.00
2022-10-02T02:46:06.529Z,95.00
2022-10-02T02:48:38.747Z,95.00
2022-10-02T02:51:15.639Z,95.00
2022-10-02T02:53:48.833Z,95.00
2022-10-02T02:56:20.655Z,95.00
2022-10-02T02:58:53.555Z,95.00
2022-10-02T03:01:22.436Z,95.00
2022-10-02T03:03:50.995Z,95.00
2022-10-02T03:06:30.285Z,95.00
2022-10-02T03:08:58.138Z,95.00
2022-10-02T03:11:39.045Z,95.00
2022-10-02T03:14:19.937Z,95.00
2022-10-02T03:16:57.645Z,95.00
2022-10-02T03:19:41.140Z,95.00
2022-10-02T03:22:22.485Z,95.00
2022-10-02T03:24:54.717Z,95.00
2022-10-02T03:27:34.875Z,95.00
2022-10-02T03:30:05.569Z,95.00
2022-10-02T03:32:38.203Z,95.00
2022-10-02T03:35:09.499Z,95.00
2022-10-02T03:37:36.511Z,95.00
2022-10-02T03:40:03.689Z,95.00
2022-10-02T03:42:33.414Z,95.00
2022-10-02T03:45:00.494Z,95.00
2022-10-02T03:47:27.682Z,95.00
2022-10-02T03:49:57.126Z,95.00
2022-10-02T03:52:24.804Z,95.00
2022-10-02T03:54:55.898Z,95.00
2022-10-02T03:57:26.688Z,95.00
2022-10-02T04:00:01.642Z,95.00
2022-10-02T04:02:35.731Z,95.00
2022-10-02T04:05:11.930Z,95.00
2022-10-02T04:07:42.052Z,95.00
2022-10-02T04:10:25.510Z,95.00
2022-10-02T04:12:57.844Z,95.00
2022-10-02T04:15:30.748Z,95.00
2022-10-02T04:18:01.429Z,95.00
2022-10-02T04:20:36.413Z,95.00
2022-10-02T04:23:10.183Z,95.00
2022-10-02T04:25:42.974Z,95.00
2022-10-02T04:28:14.303Z,95.00
2022-10-02T04:30:41.119Z,95.00
2022-10-02T04:33:12.571Z,95.00
2022-10-02T04:35:52.986Z,95.00
2022-10-02T04:38:48.239Z,95.00
2022-10-02T04:41:36.562Z,95.00
2022-10-02T04:44:19.235Z,95.00
2022-10-02T04:46:59.291Z,95.00
2022-10-02T04:49:57.729Z,95.00
2022-10-02T04:52:47.588Z,95.00
2022-10-02T04:55:30.202Z,95.00
2022-10-02T04:58:23.891Z,95.00
2022-10-02T05:01:05.783Z,95.00
2022-10-02T05:03:48.922Z,95.00
2022-10-02T05:06:34.949Z,95.00
2022-10-02T05:09:12.032Z,95.00
2022-10-02T05:12:11.370Z,95.00
2022-10-02T05:15:02.085Z,95.00
2022-10-02T05:17:45.022Z,95.00
2022-10-02T05:20:27.925Z,95.00
2022-10-02T05:23:16.187Z,95.00
2022-10-02T05:26:14.227Z,95.00
2022-10-02T05:29:03.514Z,95.00
2022-10-02T05:31:47.520Z,95.00
2022-10-02T05:34:31.878Z,95.00
2022-10-02T05:37:17.022Z,95.00
2022-10-02T05:39:55.478Z,95.00
2022-10-02T05:42:31.210Z,95.00
2022-10-02T05:45:05.288Z,95.00
2022-10-02T05:47:36.366Z,95.00
2022-10-02T05:50:14.388Z,95.00
2022-10-02T05:52:50.547Z,95.00
2022-10-02T05:55:23.313Z,95.00
2022-10-02T05:58:00.493Z,95.00
2022-10-02T06:00:32.857Z,95.00
2022-10-02T06:03:09.977Z,95.00
2022-10-02T06:05:44.348Z,95.00
2022-10-02T06:08:14.104Z,95.00
2022-10-02T06:10:46.219Z,95.00
2022-10-02T06:13:22.106Z,95.00
2022-10-02T06:15:53.142Z,95.00
2022-10-02T06:18:23.668Z,95.00
2022-10-02T06:20:53.226Z,95.00
2022-10-02T06:23:25.840Z,95.00
2022-10-02T06:25:56.501Z,95.00
2022-10-02T06:28:30.313Z,95.00
2022-10-02T06:31:09.895Z,95.00
2022-10-02T06:33:37.544Z,95.00
2022-10-02T06:36:36.872Z,95.00
2022-10-02T06:39:28.414Z,95.00
2022-10-02T06:42:08.249Z,95.00
2022-10-02T06:44:45.119Z,95.00
2022-10-02T06:47:22.111Z,95.00
2022-10-02T06:50:05.846Z,95.00
2022-10-02T06:52:41.505Z,95.00
2022-10-02T06:55:26.683Z,95.00
2022-10-02T06:58:10.493Z,95.00
2022-10-02T07:00:46.754Z,95.00
2022-10-02T07:03:30.125Z,92.47
2022-10-02T07:06:16.199Z,91.75
2022-10-02T07:09:00.976Z,88.03
2022-10-02T07:11:32.265Z,88.17
2022-10-02T07:14:12.158Z,84.95
2022-10-02T07:17:05.574Z,89.03
2022-10-02T07:19:52.447Z,88.00
2022-10-02T07:22:44.710Z,86.54
2022-10-02T07:25:43.647Z,85.66
2022-10-02T07:28:20.881Z,88.12
2022-10-02T07:30:56.380Z,89.18
2022-10-02T07:33:36.329Z,90.38
2022-10-02T07:36:10.533Z,90.18
2022-10-02T07:38:50.870Z,91.12
2022-10-02T07:41:53.158Z,87.82
2022-10-02T07:44:55.485Z,85.16
2022-10-02T07:47:40.506Z,84.47
2022-10-02T07:50:13.015Z,84.05
2022-10-02T07:52:53.871Z,82.29
2022-10-02T07:55:21.912Z,82.44
2022-10-02T07:58:02.568Z,83.52
2022-10-02T08:00:33.478Z,85.05
2022-10-02T08:03:04.653Z,85.97
2022-10-02T08:05:34.928Z,84.53
2022-10-02T08:08:06.934Z,85.91
2022-10-02T08:10:38.824Z,84.87
2022-10-02T08:13:14.485Z,83.61
2022-10-02T08:15:44.296Z,84.54
2022-10-02T08:18:33.632Z,84.72
2022-10-02T08:21:09.723Z,83.79
2022-10-02T08:23:42.471Z,84.23
2022-10-02T08:26:17.437Z,85.92
2022-10-02T08:28:49.668Z,85.19
2022-10-02T08:31:16.471Z,84.45
2022-10-02T08:33:44.162Z,83.67
2022-10-02T08:36:37.807Z,81.54
2022-10-02T08:39:13.996Z,81.71
2022-10-02T08:42:04.801Z,78.42
2022-10-02T08:45:11.409Z,79.67
2022-10-02T08:48:06.761Z,78.71
2022-10-02T08:51:07.812Z,80.38
2022-10-02T08:54:23.395Z,81.19
2022-10-02T08:56:57.513Z,80.18
2022-10-02T09:00:07.657Z,81.65
2022-10-02T09:03:19.560Z,82.93
2022-10-02T09:06:15.273Z,82.98
2022-10-02T09:09:21.140Z,82.68
2022-10-02T09:12:27.593Z,83.13
2022-10-02T09:15:03.634Z,81.75
2022-10-02T09:17:45.039Z,80.34
2022-10-02T09:20:55.908Z,80.27
2022-10-02T09:23:59.745Z,74.86
2022-10-02T09:26:36.966Z,74.74
2022-10-02T09:29:39.574Z,78.34
2022-10-02T09:32:45.757Z,78.07
2022-10-02T09:36:15.908Z,78.48
2022-10-02T09:39:18.959Z,79.79
2022-10-02T09:42:20.615Z,78.97
2022-10-02T09:45:29.541Z,79.00
2022-10-02T09:48:33.567Z,80.65
2022-10-02T09:51:28.404Z,76.55
2022-10-02T09:54:24.378Z,77.29
2022-10-02T09:57:27.880Z,76.80
2022-10-02T10:00:18.287Z,76.19
2022-10-02T10:03:23.933Z,72.67
2022-10-02T10:06:29.153Z,72.80
2022-10-02T10:09:19.356Z,73.29
2022-10-02T10:12:07.013Z,71.13
2022-10-02T10:15:01.801Z,70.98
2022-10-02T10:18:05.544Z,68.18
2022-10-02T10:20:55.270Z,68.82
2022-10-02T10:23:57.874Z,66.93
2022-10-02T10:27:09.427Z,65.22
2022-10-02T10:29:59.405Z,65.34
2022-10-02T10:33:06.174Z,60.24
2022-10-02T10:36:12.785Z,61.46
2022-10-02T10:38:48.278Z,62.47
2022-10-02T10:41:57.227Z,59.78
2022-10-02T10:45:12.638Z,60.40
2022-10-02T10:47:47.420Z,62.66
2022-10-02T10:50:22.907Z,62.23
2022-10-02T10:53:19.492Z,62.21
2022-10-02T10:56:20.984Z,61.53
2022-10-02T10:59:12.571Z,58.87
2022-10-02T11:01:50.922Z,58.20
2022-10-02T11:04:55.868Z,59.51
2022-10-02T11:07:41.183Z,63.50
2022-10-02T11:10:31.195Z,64.54
2022-10-02T11:13:05.290Z,63.83
2022-10-02T11:15:59.825Z,59.63
2022-10-02T11:18:43.333Z,62.72
2022-10-02T11:21:32.809Z,61.69
2022-10-02T11:24:18.665Z,61.38
2022-10-02T11:26:59.759Z,60.88
2022-10-02T11:30:05.698Z,60.42
2022-10-02T11:33:06.342Z,61.91
2022-10-02T11:35:56.362Z,60.31
2022-10-02T11:39:01.780Z,59.98
2022-10-02T11:42:11.423Z,58.34
2022-10-02T11:44:57.699Z,58.19
2022-10-02T11:47:43.556Z,60.74
2022-10-02T11:50:40.223Z,58.41
2022-10-02T11:53:31.483Z,56.62
2022-10-02T11:56:33.568Z,54.87
2022-10-02T11:59:19.050Z,56.52
2022-10-02T12:01:53.404Z,55.65
2022-10-02T12:04:32.660Z,55.70
2022-10-02T12:07:12.059Z,52.94
2022-10-02T12:09:54.406Z,50.05
2022-10-02T12:12:37.202Z,52.70
2022-10-02T12:15:13.873Z,51.83
2022-10-02T12:18:00.039Z,52.80
2022-10-02T12:20:43.728Z,47.99
2022-10-02T12:23:24.651Z,50.22
2022-10-02T12:25:59.719Z,51.24
2022-10-02T12:28:35.072Z,50.39
2022-10-02T12:31:11.214Z,51.83
2022-10-02T12:33:45.785Z,50.71
2022-10-02T12:36:34.812Z,51.92
2022-10-02T12:39:12.553Z,54.75
2022-10-02T12:41:58.898Z,54.18
2022-10-02T12:45:12.119Z,57.30
2022-10-02T12:48:00.259Z,56.19
2022-10-02T12:50:46.363Z,57.24
2022-10-02T12:53:50.933Z,55.66
2022-10-02T12:56:45.691Z,57.49
2022-10-02T12:59:22.733Z,55.21
2022-10-02T13:02:56.535Z,57.38
2022-10-02T13:05:49.624Z,60.19
2022-10-02T13:08:30.403Z,59.99
2022-10-02T13:11:09.002Z,58.67
2022-10-02T13:13:54.155Z,60.89
2022-10-02T13:16:32.918Z,59.86
2022-10-02T13:19:13.600Z,60.35
2022-10-02T13:21:53.192Z,59.88
2022-10-02T13:24:39.681Z,59.57
2022-10-02T13:27:17.504Z,58.83
2022-10-02T13:30:02.362Z,58.47
2022-10-02T13:32:50.004Z,56.92
2022-10-02T13:35:31.357Z,57.99
2022-10-02T13:38:11.231Z,57.98
2022-10-02T13:40:48.218Z,59.75
2022-10-02T13:43:32.511Z,59.73
2022-10-02T13:46:09.544Z,61.58
2022-10-02T13:48:49.391Z,58.48
2022-10-02T13:51:22.062Z,60.36
2022-10-02T13:54:17.972Z,62.25
2022-10-02T13:56:51.762Z,60.76
2022-10-02T13:59:37.272Z,58.54
2022-10-02T14:02:28.097Z,58.60
2022-10-02T14:05:03.718Z,61.24
2022-10-02T14:07:50.498Z,61.68
2022-10-02T14:10:30.474Z,62.65
2022-10-02T14:13:12.774Z,62.76
2022-10-02T14:16:09.999Z,63.51
2022-10-02T14:19:02.376Z,63.61
2022-10-02T14:21:34.854Z,65.81
2022-10-02T14:24:28.543Z,65.30
2022-10-02T14:27:07.974Z,66.08
2022-10-02T14:29:45.089Z,66.47
2022-10-02T14:32:42.664Z,65.94
2022-10-02T14:35:33.479Z,65.90
2022-10-02T14:38:27.415Z,66.33
2022-10-02T14:40:55.855Z,67.76
2022-10-02T14:43:59.550Z,69.11
2022-10-02T14:46:44.900Z,69.47
2022-10-02T14:49:49.965Z,72.08
2022-10-02T14:52:42.262Z,73.50
2022-10-02T14:55:28.417Z,73.33
2022-10-02T14:58:15.535Z,74.06
2022-10-02T15:01:00.644Z,75.37
2022-10-02T15:04:09.623Z,75.60
2022-10-02T15:06:54.490Z,75.00
2022-10-02T15:09:28.615Z,74.88
2022-10-02T15:12:11.790Z,75.66
2022-10-02T15:14:47.763Z,78.77
2022-10-02T15:17:25.219Z,82.54
2022-10-02T15:19:58.057Z,84.58
2022-10-02T15:22:29.710Z,87.03
2022-10-02T15:25:06.403Z,86.72
2022-10-02T15:27:43.895Z,85.21
2022-10-02T15:30:19.907Z,85.59
2022-10-02T15:33:10.756Z,86.56
2022-10-02T15:35:55.655Z,86.08
2022-10-02T15:38:49.463Z,85.17
2022-10-02T15:41:35.940Z,87.86
2022-10-02T15:44:09.945Z,87.32
2022-10-02T15:46:48.601Z,87.49
2022-10-02T15:49:25.343Z,93.48
2022-10-02T15:52:03.178Z,95.00
2022-10-02T15:54:41.733Z,95.00
2022-10-02T15:57:28.983Z,95.00
2022-10-02T16:00:10.002Z,95.00
2022-10-02T16:03:01.620Z,95.00
2022-10-02T16:05:53.003Z,95.00
2022-10-02T16:08:49.941Z,95.00
2022-10-02T16:11:52.723Z,95.00
2022-10-02T16:14:29.846Z,95.00
2022-10-02T16:17:12.218Z,95.00
2022-10-02T16:20:06.009Z,95.00
2022-10-02T16:22:48.845Z,95.00
2022-10-02T16:25:30.257Z,95.00
2022-10-02T16:28:09.486Z,95.00
2022-10-02T16:30:58.374Z,95.00
2022-10-02T16:33:32.529Z,95.00
2022-10-02T16:36:14.344Z,95.00
2022-10-02T16:38:48.017Z,95.00
2022-10-02T16:41:34.373Z,95.00
2022-10-02T16:44:17.727Z,95.00
2022-10-02T16:46:47.779Z,95.00
2022-10-02T16:49:25.095Z,95.00
2022-10-02T16:52:00.338Z,95.00
2022-10-02T16:54:37.957Z,95.00
2022-10-02T16:57:15.020Z,95.00
2022-10-02T16:59:49.115Z,95.00
2022-10-02T17:02:22.206Z,95.00
2022-10-02T17:05:00.469Z,95.00
2022-10-02T17:07:35.777Z,95.00
2022-10-02T17:10:19.016Z,95.00
2022-10-02T17:12:52.087Z,95.00
2022-10-02T17:15:25.279Z,95.00
2022-10-02T17:18:08.881Z,95.00
2022-10-02T17:20:43.424Z,95.00
2022-10-02T17:23:20.624Z,95.00
2022-10-02T17:25:56.775Z,95.00
2022-10-02T17:28:30.435Z,95.00
2022-10-02T17:31:24.493Z,95.00
2022-10-02T17:33:56.261Z,95.00
2022-10-02T17:36:33.079Z,95.00
2022-10-02T17:39:21.783Z,95.00
2022-10-02T17:41:55.778Z,95.00
2022-10-02T17:44:44.416Z,95.00
2022-10-02T17:47:40.621Z,95.00
2022-10-02T17:50:31.275Z,95.00
2022-10-02T17:53:12.479Z,95.00
2022-10-02T17:56:04.724Z,95.00
2022-10-02T17:58:41.779Z,95.00
2022-10-02T18:01:20.038Z,95.00
2022-10-02T18:04:03.559Z,95.00
2022-10-02T18:06:39.161Z,95.00
2022-10-02T18:09:33.366Z,95.00
2022-10-02T18:12:26.238Z,95.00
2022-10-02T18:15:14.724Z,95.00
2022-10-02T18:17:54.332Z,95.00
2022-10-02T18:20:32.621Z,95.00
2022-10-02T18:23:34.326Z,95.00
2022-10-02T18:26:18.849Z,95.00
2022-10-02T18:29:10.694Z,95.00
2022-10-02T18:31:57.833Z,95.00
2022-10-02T18:34:43.657Z,95.00
2022-10-02T18:37:27.634Z,95.00
2022-10-02T18:40:15.845Z,95.00
2022-10-02T18:42:56.870Z,95.00
2022-10-02T18:45:40.367Z,95.00
2022-10-02T18:48:21.607Z,95.00
2022-10-02T18:51:10.407Z,95.00
2022-10-02T18:53:58.075Z,95.00
2022-10-02T18:56:46.364Z,95.00
2022-10-02T18:59:21.803Z,95.00
2022-10-02T19:01:56.821Z,95.00
2022-10-02T19:04:47.231Z,95.00
2022-10-02T19:07:19.437Z,95.00
2022-10-02T19:09:47.006Z,95.00
2022-10-02T19:12:21.485Z,95.00
2022-10-02T19:14:48.053Z,95.00
2022-10-02T19:17:16.459Z,95.00
2022-10-02T19:19:43.455Z,95.00
2022-10-02T19:22:19.582Z,95.00
2022-10-02T19:24:50.881Z,95.00
2022-10-02T19:27:26.266Z,95.00
2022-10-02T19:29:56.806Z,95.00
2022-10-02T19:32:28.777Z,95.00
2022-10-02T19:35:00.154Z,95.00
2022-10-02T19:37:28.381Z,95.00
2022-10-02T19:39:59.705Z,95.00
2022-10-02T19:42:30.869Z,95.00
2022-10-02T19:45:01.323Z,95.00
2022-10-02T19:47:33.472Z,95.00
2022-10-02T19:50:03.174Z,95.00
2022-10-02T19:52:42.996Z,95.00
2022-10-02T19:55:20.686Z,95.00
2022-10-02T19:57:58.007Z,95.00
2022-10-02T20:00:24.828Z,95.00
2022-10-02T20:02:55.355Z,95.00
2022-10-02T20:05:24.665Z,95.00
2022-10-02T20:07:56.217Z,95.00
2022-10-02T20:10:31.990Z,95.00
2022-10-02T20:13:11.222Z,95.00
2022-10-02T20:15:44.904Z,95.00
2022-10-02T20:18:13.436Z,95.00
2022-10-02T20:20:43.291Z,95.00
2022-10-02T20:23:15.430Z,95.00
2022-10-02T20:25:47.948Z,95.00
2022-10-02T20:28:23.837Z,95.00
2022-10-02T20:30:54.384Z,95.00
2022-10-02T20:33:25.626Z,95.00
2022-10-02T20:35:58.244Z,95.00
2022-10-02T20:38:31.709Z,95.00
2022-10-02T20:41:06.840Z,95.00
2022-10-02T20:43:40.796Z,95.00
2022-10-02T20:46:47.104Z,95.00
2022-10-02T20:49:41.389Z,95.00
2022-10-02T20:52:53.933Z,95.00
2022-10-02T20:55:27.142Z,95.00
2022-10-02T20:58:28.263Z,95.00
2022-10-02T21:01:14.688Z,95.00
2022-10-02T21:04:28.733Z,95.00
2022-10-02T21:07:18.812Z,95.00
2022-10-02T21:09:59.383Z,95.00
2022-10-02T21:12:57.022Z,95.00
2022-10-02T21:15:52.236Z,95.00
2022-10-02T21:18:37.022Z,95.00
2022-10-02T21:21:39.404Z,95.00
2022-10-02T21:24:47.271Z,95.00
2022-10-02T21:27:35.932Z,95.00
2022-10-02T21:30:12.203Z,95.00
2022-10-02T21:32:50.411Z,95.00
2022-10-02T21:35:36.500Z,95.00
2022-10-02T21:38:25.572Z,95.00
2022-10-02T21:41:27.229Z,95.00
2022-10-02T21:44:18.627Z,95.00
2022-10-02T21:47:13.419Z,95.00
2022-10-02T21:50:09.475Z,95.00
2022-10-02T21:53:17.253Z,95.00
2022-10-02T21:56:22.815Z,95.00
2022-10-02T21:59:13.110Z,95.00
2022-10-02T22:02:09.612Z,95.00
2022-10-02T22:05:19.221Z,95.00
2022-10-02T22:07:53.688Z,95.00
2022-10-02T22:10:27.479Z,95.00
2022-10-02T22:13:11.226Z,95.00
2022-10-02T22:15:47.192Z,95.00
2022-10-02T22:18:28.051Z,95.00
2022-10-02T22:21:17.950Z,95.00
2022-10-02T22:24:08.345Z,95.00
2022-10-02T22:27:18.367Z,95.00
2022-10-02T22:29:47.993Z,95.00
2022-10-02T22:32:42.281Z,95.00
2022-10-02T22:35:19.254Z,95.00
2022-10-02T22:38:03.841Z,95.00
2022-10-02T22:40:47.951Z,95.00
2022-10-02T22:43:24.759Z,95.00
2022-10-02T22:45:57.922Z,95.00
2022-10-02T22:48:32.455Z,95.00
2022-10-02T22:51:14.018Z,95.00
2022-10-02T22:53:47.690Z,95.00
2022-10-02T22:56:23.713Z,95.00
2022-10-02T22:59:00.064Z,95.00
2022-10-02T23:01:39.077Z,95.00
2022-10-02T23:04:18.700Z,95.00
2022-10-02T23:06:50.459Z,95.00
2022-10-02T23:09:22.234Z,95.00
2022-10-02T23:11:58.491Z,95.00
2022-10-02T23:14:34.527Z,95.00
2022-10-02T23:17:10.546Z,95.00
2022-10-02T23:19:43.184Z,95.00
2022-10-02T23:22:20.158Z,95.00
2022-10-02T23:24:51.437Z,95.00
2022-10-02T23:27:22.338Z,95.00
2022-10-02T23:29:56.925Z,95.00
2022-10-02T23:32:29.318Z,95.00
2022-10-02T23:35:03.492Z,95.00
2022-10-02T23:37:41.467Z,95.00
2022-10-02T23:40:20.295Z,95.00
2022-10-02T23:42:53.458Z,95.00
2022-10-02T23:45:27.113Z,95.00
2022-10-02T23:48:00.549Z,95.00
2022-10-02T23:50:39.581Z,95.00
2022-10-02T23:53:38.011Z,95.00
2022-10-02T23:56:40.155Z,95.00
2022-10-02T23:59:24.432Z,95.00
